Saint Louis, Missouri
Traffic Map
Current Weather Conditions
Saint Louis, Missouri
Clear
Clear
13°
Feels Like: 13°
Wind Chill: 13° Ceiling: Unl
Heat Index: 13° Visibility: 10mi
Dew Point: Wind: 0mph
Humidity: 59% Direction: ° ()
Pressure: 29.99in Gusts: 0mph
Raw Report DataKCPS 300053Z 00000KT 10SM CLR 13/05 A2999 RMK AO2 SLP157 T01280050
Traffic Incident Summary
Active as of:
Severity:
Category:
InformationThere was an issue retrieving the traffic information for this location. Please try a different location or try again shortly.
Advertisements
Track Severe Weather on mobile